sensor_id;sensor_type;location;lat;lon;timestamp;P1;durP1;ratioP1;P2;durP2;ratioP2
4616;SDS011;2321;42.704;23.384;2023-04-24T00:01:03;460.90;;;318.77;;
4616;SDS011;2321;42.704;23.384;2023-04-24T00:03:33;436.50;;;287.90;;
4616;SDS011;2321;42.704;23.384;2023-04-24T00:06:00;446.80;;;278.83;;
4616;SDS011;2321;42.704;23.384;2023-04-24T00:08:27;467.57;;;311.00;;
4616;SDS011;2321;42.704;23.384;2023-04-24T00:10:54;401.67;;;269.90;;
4616;SDS011;2321;42.704;23.384;2023-04-24T00:13:21;432.60;;;288.20;;
4616;SDS011;2321;42.704;23.384;2023-04-24T00:15:48;450.43;;;334.17;;
4616;SDS011;2321;42.704;23.384;2023-04-24T00:18:15;446.97;;;276.47;;
4616;SDS011;2321;42.704;23.384;2023-04-24T00:20:43;465.90;;;304.03;;
4616;SDS011;2321;42.704;23.384;2023-04-24T00:23:11;447.10;;;266.00;;
4616;SDS011;2321;42.704;23.384;2023-04-24T00:25:38;459.63;;;298.93;;
4616;SDS011;2321;42.704;23.384;2023-04-24T00:28:06;436.17;;;269.60;;
4616;SDS011;2321;42.704;23.384;2023-04-24T00:30:32;441.90;;;252.17;;
4616;SDS011;2321;42.704;23.384;2023-04-24T00:32:59;446.57;;;251.80;;
4616;SDS011;2321;42.704;23.384;2023-04-24T00:35:26;452.57;;;275.10;;
4616;SDS011;2321;42.704;23.384;2023-04-24T00:37:54;461.37;;;289.23;;
4616;SDS011;2321;42.704;23.384;2023-04-24T00:40:21;466.90;;;253.70;;
4616;SDS011;2321;42.704;23.384;2023-04-24T00:42:48;473.93;;;258.43;;
4616;SDS011;2321;42.704;23.384;2023-04-24T00:45:15;469.03;;;246.33;;
4616;SDS011;2321;42.704;23.384;2023-04-24T00:47:42;470.43;;;247.03;;
4616;SDS011;2321;42.704;23.384;2023-04-24T00:50:10;454.23;;;227.40;;
4616;SDS011;2321;42.704;23.384;2023-04-24T00:52:38;508.27;;;310.93;;
4616;SDS011;2321;42.704;23.384;2023-04-24T00:55:07;536.63;;;298.87;;
4616;SDS011;2321;42.704;23.384;2023-04-24T00:57:35;520.80;;;284.93;;
4616;SDS011;2321;42.704;23.384;2023-04-24T01:00:03;533.00;;;282.17;;
4616;SDS011;2321;42.704;23.384;2023-04-24T01:02:33;557.70;;;306.73;;
4616;SDS011;2321;42.704;23.384;2023-04-24T01:05:00;563.27;;;305.93;;
4616;SDS011;2321;42.704;23.384;2023-04-24T01:07:27;960.80;;;355.17;;
4616;SDS011;2321;42.704;23.384;2023-04-24T01:09:55;915.60;;;350.13;;
4616;SDS011;2321;42.704;23.384;2023-04-24T01:12:23;875.70;;;328.07;;
4616;SDS011;2321;42.704;23.384;2023-04-24T01:14:50;914.17;;;331.60;;
4616;SDS011;2321;42.704;23.384;2023-04-24T01:17:17;927.00;;;350.60;;
4616;SDS011;2321;42.704;23.384;2023-04-24T01:19:44;954.43;;;339.73;;
4616;SDS011;2321;42.704;23.384;2023-04-24T01:22:13;978.47;;;354.73;;
4616;SDS011;2321;42.704;23.384;2023-04-24T01:24:41;1022.13;;;442.63;;
4616;SDS011;2321;42.704;23.384;2023-04-24T01:27:09;964.80;;;341.93;;
4616;SDS011;2321;42.704;23.384;2023-04-24T01:29:36;981.67;;;353.87;;
4616;SDS011;2321;42.704;23.384;2023-04-24T01:32:03;980.13;;;361.57;;
4616;SDS011;2321;42.704;23.384;2023-04-24T01:34:31;979.00;;;355.67;;
4616;SDS011;2321;42.704;23.384;2023-04-24T01:36:59;1011.47;;;430.17;;
4616;SDS011;2321;42.704;23.384;2023-04-24T01:39:27;961.87;;;325.80;;
4616;SDS011;2321;42.704;23.384;2023-04-24T01:41:54;993.17;;;365.13;;
4616;SDS011;2321;42.704;23.384;2023-04-24T01:44:21;992.07;;;390.07;;
4616;SDS011;2321;42.704;23.384;2023-04-24T01:46:48;964.07;;;318.00;;
4616;SDS011;2321;42.704;23.384;2023-04-24T01:49:15;965.90;;;322.73;;
4616;SDS011;2321;42.704;23.384;2023-04-24T01:51:42;970.67;;;331.40;;
4616;SDS011;2321;42.704;23.384;2023-04-24T01:54:09;973.63;;;344.13;;
4616;SDS011;2321;42.704;23.384;2023-04-24T01:56:37;976.77;;;346.57;;
4616;SDS011;2321;42.704;23.384;2023-04-24T01:59:07;963.13;;;317.57;;
4616;SDS011;2321;42.704;23.384;2023-04-24T02:01:35;978.47;;;330.37;;
4616;SDS011;2321;42.704;23.384;2023-04-24T02:04:03;977.83;;;322.97;;
4616;SDS011;2321;42.704;23.384;2023-04-24T02:06:30;981.00;;;356.53;;
4616;SDS011;2321;42.704;23.384;2023-04-24T02:08:57;954.60;;;362.43;;
4616;SDS011;2321;42.704;23.384;2023-04-24T02:11:24;856.30;;;293.07;;
4616;SDS011;2321;42.704;23.384;2023-04-24T02:13:52;838.90;;;281.80;;
4616;SDS011;2321;42.704;23.384;2023-04-24T02:16:19;842.57;;;324.53;;
4616;SDS011;2321;42.704;23.384;2023-04-24T02:18:46;842.80;;;322.10;;
4616;SDS011;2321;42.704;23.384;2023-04-24T02:21:13;830.33;;;327.27;;
4616;SDS011;2321;42.704;23.384;2023-04-24T02:23:40;849.03;;;314.57;;
4616;SDS011;2321;42.704;23.384;2023-04-24T02:26:07;809.63;;;275.87;;
4616;SDS011;2321;42.704;23.384;2023-04-24T02:28:34;812.70;;;311.20;;
4616;SDS011;2321;42.704;23.384;2023-04-24T02:31:02;765.87;;;296.17;;
4616;SDS011;2321;42.704;23.384;2023-04-24T02:33:30;757.87;;;273.17;;
4616;SDS011;2321;42.704;23.384;2023-04-24T02:35:57;770.80;;;299.60;;
4616;SDS011;2321;42.704;23.384;2023-04-24T02:38:24;765.50;;;250.83;;
4616;SDS011;2321;42.704;23.384;2023-04-24T02:40:51;756.97;;;281.43;;
4616;SDS011;2321;42.704;23.384;2023-04-24T02:43:18;776.43;;;259.23;;
4616;SDS011;2321;42.704;23.384;2023-04-24T02:45:45;792.80;;;300.40;;
4616;SDS011;2321;42.704;23.384;2023-04-24T02:48:13;869.10;;;290.90;;
4616;SDS011;2321;42.704;23.384;2023-04-24T02:50:40;686.47;;;245.07;;
4616;SDS011;2321;42.704;23.384;2023-04-24T02:53:07;885.90;;;305.20;;
4616;SDS011;2321;42.704;23.384;2023-04-24T02:55:34;617.77;;;255.43;;
4616;SDS011;2321;42.704;23.384;2023-04-24T02:58:01;595.83;;;226.10;;
4616;SDS011;2321;42.704;23.384;2023-04-24T03:00:28;610.17;;;264.57;;
4616;SDS011;2321;42.704;23.384;2023-04-24T03:02:55;614.03;;;264.80;;
4616;SDS011;2321;42.704;23.384;2023-04-24T03:05:23;639.13;;;259.87;;
4616;SDS011;2321;42.704;23.384;2023-04-24T03:07:50;603.60;;;258.37;;
4616;SDS011;2321;42.704;23.384;2023-04-24T03:10:17;588.80;;;238.23;;
4616;SDS011;2321;42.704;23.384;2023-04-24T03:12:44;644.67;;;294.23;;
4616;SDS011;2321;42.704;23.384;2023-04-24T03:15:11;628.00;;;243.13;;
4616;SDS011;2321;42.704;23.384;2023-04-24T03:17:38;678.10;;;232.17;;
4616;SDS011;2321;42.704;23.384;2023-04-24T03:20:05;673.37;;;219.97;;
4616;SDS011;2321;42.704;23.384;2023-04-24T03:22:34;891.03;;;282.80;;
4616;SDS011;2321;42.704;23.384;2023-04-24T03:25:01;637.50;;;212.40;;
4616;SDS011;2321;42.704;23.384;2023-04-24T03:27:29;633.87;;;236.00;;
4616;SDS011;2321;42.704;23.384;2023-04-24T03:29:55;666.50;;;254.70;;
4616;SDS011;2321;42.704;23.384;2023-04-24T03:32:22;687.90;;;238.13;;
4616;SDS011;2321;42.704;23.384;2023-04-24T03:34:49;751.50;;;228.20;;
4616;SDS011;2321;42.704;23.384;2023-04-24T03:37:16;969.50;;;337.27;;
4616;SDS011;2321;42.704;23.384;2023-04-24T03:39:44;931.43;;;292.43;;
4616;SDS011;2321;42.704;23.384;2023-04-24T03:42:11;774.17;;;245.07;;
4616;SDS011;2321;42.704;23.384;2023-04-24T03:44:38;820.27;;;271.30;;
4616;SDS011;2321;42.704;23.384;2023-04-24T03:47:05;814.00;;;240.53;;
4616;SDS011;2321;42.704;23.384;2023-04-24T03:49:32;876.73;;;294.03;;
4616;SDS011;2321;42.704;23.384;2023-04-24T03:51:59;799.07;;;255.50;;
4616;SDS011;2321;42.704;23.384;2023-04-24T03:54:26;818.20;;;243.93;;
4616;SDS011;2321;42.704;23.384;2023-04-24T03:56:54;851.83;;;273.47;;
4616;SDS011;2321;42.704;23.384;2023-04-24T03:59:21;748.27;;;252.63;;
4616;SDS011;2321;42.704;23.384;2023-04-24T04:01:48;829.10;;;265.30;;
4616;SDS011;2321;42.704;23.384;2023-04-24T04:04:14;920.13;;;285.17;;
4616;SDS011;2321;42.704;23.384;2023-04-24T04:06:42;853.43;;;286.27;;
4616;SDS011;2321;42.704;23.384;2023-04-24T04:09:12;857.57;;;295.13;;
4616;SDS011;2321;42.704;23.384;2023-04-24T04:11:39;827.07;;;303.97;;
4616;SDS011;2321;42.704;23.384;2023-04-24T04:14:07;906.87;;;309.20;;
4616;SDS011;2321;42.704;23.384;2023-04-24T04:16:34;856.77;;;272.33;;
4616;SDS011;2321;42.704;23.384;2023-04-24T04:19:02;721.70;;;255.97;;
4616;SDS011;2321;42.704;23.384;2023-04-24T04:21:29;780.73;;;250.70;;
4616;SDS011;2321;42.704;23.384;2023-04-24T04:23:57;784.43;;;273.57;;
4616;SDS011;2321;42.704;23.384;2023-04-24T04:26:24;761.53;;;264.40;;
4616;SDS011;2321;42.704;23.384;2023-04-24T04:28:51;681.93;;;264.37;;
4616;SDS011;2321;42.704;23.384;2023-04-24T04:31:19;687.17;;;262.70;;
4616;SDS011;2321;42.704;23.384;2023-04-24T04:33:47;718.90;;;289.13;;
4616;SDS011;2321;42.704;23.384;2023-04-24T04:36:14;758.27;;;284.07;;
4616;SDS011;2321;42.704;23.384;2023-04-24T04:38:42;786.53;;;277.37;;
4616;SDS011;2321;42.704;23.384;2023-04-24T04:41:09;787.57;;;301.50;;
4616;SDS011;2321;42.704;23.384;2023-04-24T04:43:37;767.67;;;275.80;;
4616;SDS011;2321;42.704;23.384;2023-04-24T04:46:05;761.27;;;279.23;;
4616;SDS011;2321;42.704;23.384;2023-04-24T04:48:35;798.73;;;314.77;;
4616;SDS011;2321;42.704;23.384;2023-04-24T04:51:01;810.70;;;297.57;;
4616;SDS011;2321;42.704;23.384;2023-04-24T04:53:28;724.63;;;256.97;;
4616;SDS011;2321;42.704;23.384;2023-04-24T04:55:55;865.63;;;334.77;;
4616;SDS011;2321;42.704;23.384;2023-04-24T04:58:22;802.20;;;301.30;;
4616;SDS011;2321;42.704;23.384;2023-04-24T05:00:49;935.70;;;333.23;;
4616;SDS011;2321;42.704;23.384;2023-04-24T05:03:17;910.83;;;315.07;;
4616;SDS011;2321;42.704;23.384;2023-04-24T05:05:45;704.87;;;246.83;;
4616;SDS011;2321;42.704;23.384;2023-04-24T05:08:12;745.43;;;253.07;;
4616;SDS011;2321;42.704;23.384;2023-04-24T05:10:39;805.13;;;308.30;;
4616;SDS011;2321;42.704;23.384;2023-04-24T05:13:06;793.60;;;277.53;;
4616;SDS011;2321;42.704;23.384;2023-04-24T05:15:33;799.67;;;295.17;;
4616;SDS011;2321;42.704;23.384;2023-04-24T05:18:00;608.10;;;256.53;;
4616;SDS011;2321;42.704;23.384;2023-04-24T05:20:27;623.00;;;283.47;;
4616;SDS011;2321;42.704;23.384;2023-04-24T05:22:55;627.07;;;257.13;;
4616;SDS011;2321;42.704;23.384;2023-04-24T05:25:22;593.63;;;278.80;;
4616;SDS011;2321;42.704;23.384;2023-04-24T05:27:49;605.90;;;241.33;;
4616;SDS011;2321;42.704;23.384;2023-04-24T05:30:16;857.27;;;317.83;;
4616;SDS011;2321;42.704;23.384;2023-04-24T05:32:42;514.13;;;259.93;;
4616;SDS011;2321;42.704;23.384;2023-04-24T05:35:10;534.27;;;283.53;;
4616;SDS011;2321;42.704;23.384;2023-04-24T05:37:37;531.30;;;276.30;;
4616;SDS011;2321;42.704;23.384;2023-04-24T05:40:06;551.77;;;316.93;;
4616;SDS011;2321;42.704;23.384;2023-04-24T05:42:34;529.63;;;308.93;;
4616;SDS011;2321;42.704;23.384;2023-04-24T05:45:00;528.90;;;277.27;;
4616;SDS011;2321;42.704;23.384;2023-04-24T05:47:27;524.93;;;308.53;;
4616;SDS011;2321;42.704;23.384;2023-04-24T05:49:54;531.17;;;313.40;;
4616;SDS011;2321;42.704;23.384;2023-04-24T05:52:21;518.80;;;308.90;;
4616;SDS011;2321;42.704;23.384;2023-04-24T05:54:48;534.43;;;332.97;;
4616;SDS011;2321;42.704;23.384;2023-04-24T05:57:16;515.37;;;315.47;;
4616;SDS011;2321;42.704;23.384;2023-04-24T05:59:43;492.67;;;286.07;;
4616;SDS011;2321;42.704;23.384;2023-04-24T06:02:10;653.73;;;328.80;;
4616;SDS011;2321;42.704;23.384;2023-04-24T06:04:37;683.50;;;354.13;;
4616;SDS011;2321;42.704;23.384;2023-04-24T06:07:04;657.30;;;325.13;;
4616;SDS011;2321;42.704;23.384;2023-04-24T06:09:31;684.03;;;332.43;;
4616;SDS011;2321;42.704;23.384;2023-04-24T06:11:58;703.13;;;344.27;;
4616;SDS011;2321;42.704;23.384;2023-04-24T06:14:27;609.60;;;326.93;;
4616;SDS011;2321;42.704;23.384;2023-04-24T06:16:53;678.23;;;329.53;;
4616;SDS011;2321;42.704;23.384;2023-04-24T06:19:20;712.13;;;344.83;;
4616;SDS011;2321;42.704;23.384;2023-04-24T06:21:47;800.47;;;408.47;;
4616;SDS011;2321;42.704;23.384;2023-04-24T06:24:14;763.23;;;377.47;;
4616;SDS011;2321;42.704;23.384;2023-04-24T06:26:42;884.57;;;416.93;;
4616;SDS011;2321;42.704;23.384;2023-04-24T06:29:08;975.87;;;444.70;;
4616;SDS011;2321;42.704;23.384;2023-04-24T06:31:37;973.40;;;431.77;;
4616;SDS011;2321;42.704;23.384;2023-04-24T06:34:04;990.67;;;424.90;;
4616;SDS011;2321;42.704;23.384;2023-04-24T06:36:31;863.27;;;425.27;;
4616;SDS011;2321;42.704;23.384;2023-04-24T06:38:59;808.83;;;395.30;;
4616;SDS011;2321;42.704;23.384;2023-04-24T06:41:26;909.33;;;455.57;;
4616;SDS011;2321;42.704;23.384;2023-04-24T06:43:54;919.33;;;387.30;;
4616;SDS011;2321;42.704;23.384;2023-04-24T06:46:21;942.00;;;406.67;;
4616;SDS011;2321;42.704;23.384;2023-04-24T06:48:52;988.37;;;433.07;;
4616;SDS011;2321;42.704;23.384;2023-04-24T06:51:21;972.43;;;414.53;;
4616;SDS011;2321;42.704;23.384;2023-04-24T06:53:48;1001.07;;;467.90;;
4616;SDS011;2321;42.704;23.384;2023-04-24T06:56:16;982.97;;;477.80;;
4616;SDS011;2321;42.704;23.384;2023-04-24T06:58:42;1002.40;;;447.53;;
4616;SDS011;2321;42.704;23.384;2023-04-24T07:01:10;965.00;;;455.13;;
4616;SDS011;2321;42.704;23.384;2023-04-24T07:03:37;1031.13;;;530.70;;
4616;SDS011;2321;42.704;23.384;2023-04-24T07:06:05;988.53;;;480.93;;
4616;SDS011;2321;42.704;23.384;2023-04-24T07:08:32;959.97;;;484.73;;
4616;SDS011;2321;42.704;23.384;2023-04-24T07:11:01;1016.17;;;496.17;;
4616;SDS011;2321;42.704;23.384;2023-04-24T07:13:28;964.60;;;497.33;;
4616;SDS011;2321;42.704;23.384;2023-04-24T07:15:55;1027.90;;;540.67;;
4616;SDS011;2321;42.704;23.384;2023-04-24T07:18:22;1012.20;;;506.13;;
4616;SDS011;2321;42.704;23.384;2023-04-24T07:20:49;1017.23;;;512.10;;
4616;SDS011;2321;42.704;23.384;2023-04-24T07:23:17;1015.33;;;540.80;;
4616;SDS011;2321;42.704;23.384;2023-04-24T07:25:45;983.40;;;511.17;;
4616;SDS011;2321;42.704;23.384;2023-04-24T07:28:12;970.63;;;545.17;;
4616;SDS011;2321;42.704;23.384;2023-04-24T07:30:39;938.07;;;518.70;;
4616;SDS011;2321;42.704;23.384;2023-04-24T07:33:06;916.47;;;545.77;;
4616;SDS011;2321;42.704;23.384;2023-04-24T07:35:33;946.50;;;525.23;;
4616;SDS011;2321;42.704;23.384;2023-04-24T07:38:00;931.77;;;605.73;;
4616;SDS011;2321;42.704;23.384;2023-04-24T07:40:33;888.20;;;533.33;;
4616;SDS011;2321;42.704;23.384;2023-04-24T07:43:19;854.73;;;561.47;;
4616;SDS011;2321;42.704;23.384;2023-04-24T07:45:47;891.83;;;619.70;;
4616;SDS011;2321;42.704;23.384;2023-04-24T07:48:14;847.30;;;620.00;;
4616;SDS011;2321;42.704;23.384;2023-04-24T07:50:41;839.57;;;583.23;;
4616;SDS011;2321;42.704;23.384;2023-04-24T07:53:08;826.97;;;545.10;;
4616;SDS011;2321;42.704;23.384;2023-04-24T07:55:37;864.60;;;610.23;;
4616;SDS011;2321;42.704;23.384;2023-04-24T07:58:04;862.40;;;619.67;;
4616;SDS011;2321;42.704;23.384;2023-04-24T08:00:31;822.83;;;592.87;;
4616;SDS011;2321;42.704;23.384;2023-04-24T08:02:58;848.47;;;605.57;;
4616;SDS011;2321;42.704;23.384;2023-04-24T08:05:25;809.80;;;632.80;;
4616;SDS011;2321;42.704;23.384;2023-04-24T08:07:53;877.87;;;647.20;;
4616;SDS011;2321;42.704;23.384;2023-04-24T08:10:20;853.63;;;698.23;;
4616;SDS011;2321;42.704;23.384;2023-04-24T08:12:49;832.73;;;641.87;;
4616;SDS011;2321;42.704;23.384;2023-04-24T08:15:15;773.57;;;656.83;;
4616;SDS011;2321;42.704;23.384;2023-04-24T08:17:42;769.97;;;684.80;;
4616;SDS011;2321;42.704;23.384;2023-04-24T08:20:10;690.73;;;622.97;;
4616;SDS011;2321;42.704;23.384;2023-04-24T08:22:38;802.93;;;699.53;;
4616;SDS011;2321;42.704;23.384;2023-04-24T08:25:05;736.03;;;647.77;;
4616;SDS011;2321;42.704;23.384;2023-04-24T08:27:33;835.80;;;752.30;;
4616;SDS011;2321;42.704;23.384;2023-04-24T08:30:03;827.80;;;743.53;;
4616;SDS011;2321;42.704;23.384;2023-04-24T08:32:31;758.40;;;674.37;;
4616;SDS011;2321;42.704;23.384;2023-04-24T08:34:58;757.63;;;677.17;;
4616;SDS011;2321;42.704;23.384;2023-04-24T08:37:26;835.67;;;753.17;;
4616;SDS011;2321;42.704;23.384;2023-04-24T08:39:53;866.90;;;777.10;;
4616;SDS011;2321;42.704;23.384;2023-04-24T08:42:20;839.70;;;748.97;;
4616;SDS011;2321;42.704;23.384;2023-04-24T08:44:48;915.83;;;822.37;;
4616;SDS011;2321;42.704;23.384;2023-04-24T08:47:17;885.00;;;795.53;;
4616;SDS011;2321;42.704;23.384;2023-04-24T08:49:46;877.17;;;789.40;;
4616;SDS011;2321;42.704;23.384;2023-04-24T08:52:15;817.67;;;720.00;;
4616;SDS011;2321;42.704;23.384;2023-04-24T08:54:42;907.67;;;810.77;;
4616;SDS011;2321;42.704;23.384;2023-04-24T08:57:11;900.93;;;807.37;;
4616;SDS011;2321;42.704;23.384;2023-04-24T08:59:40;791.27;;;699.43;;
4616;SDS011;2321;42.704;23.384;2023-04-24T09:02:09;915.97;;;825.40;;
4616;SDS011;2321;42.704;23.384;2023-04-24T09:04:38;828.63;;;742.00;;
4616;SDS011;2321;42.704;23.384;2023-04-24T09:07:07;872.03;;;784.40;;
4616;SDS011;2321;42.704;23.384;2023-04-24T09:09:36;941.37;;;850.87;;
4616;SDS011;2321;42.704;23.384;2023-04-24T09:12:05;855.83;;;765.80;;
4616;SDS011;2321;42.704;23.384;2023-04-24T09:14:34;941.53;;;850.07;;
4616;SDS011;2321;42.704;23.384;2023-04-24T09:17:04;857.17;;;772.80;;
4616;SDS011;2321;42.704;23.384;2023-04-24T09:19:32;977.60;;;887.80;;
4616;SDS011;2321;42.704;23.384;2023-04-24T09:22:00;928.77;;;836.27;;
4616;SDS011;2321;42.704;23.384;2023-04-24T09:24:31;816.17;;;729.73;;
4616;SDS011;2321;42.704;23.384;2023-04-24T09:26:58;898.10;;;808.13;;
4616;SDS011;2321;42.704;23.384;2023-04-24T09:29:26;966.20;;;874.90;;
4616;SDS011;2321;42.704;23.384;2023-04-24T09:31:53;929.53;;;835.13;;
4616;SDS011;2321;42.704;23.384;2023-04-24T09:34:21;922.97;;;830.40;;
4616;SDS011;2321;42.704;23.384;2023-04-24T09:36:49;853.77;;;764.70;;
4616;SDS011;2321;42.704;23.384;2023-04-24T09:39:18;887.33;;;796.00;;
4616;SDS011;2321;42.704;23.384;2023-04-24T09:41:46;941.57;;;849.97;;
4616;SDS011;2321;42.704;23.384;2023-04-24T09:44:14;897.37;;;808.07;;
4616;SDS011;2321;42.704;23.384;2023-04-24T09:46:42;957.40;;;867.60;;
4616;SDS011;2321;42.704;23.384;2023-04-24T09:49:10;856.40;;;774.73;;
4616;SDS011;2321;42.704;23.384;2023-04-24T09:51:40;870.17;;;782.97;;
4616;SDS011;2321;42.704;23.384;2023-04-24T09:54:12;865.30;;;776.00;;
4616;SDS011;2321;42.704;23.384;2023-04-24T09:56:43;873.10;;;783.63;;
4616;SDS011;2321;42.704;23.384;2023-04-24T09:59:11;869.87;;;781.17;;
4616;SDS011;2321;42.704;23.384;2023-04-24T10:01:38;878.03;;;796.63;;
4616;SDS011;2321;42.704;23.384;2023-04-24T10:04:14;906.47;;;811.83;;
4616;SDS011;2321;42.704;23.384;2023-04-24T10:06:42;911.93;;;817.10;;
4616;SDS011;2321;42.704;23.384;2023-04-24T10:09:09;991.87;;;893.73;;
4616;SDS011;2321;42.704;23.384;2023-04-24T10:11:39;923.90;;;826.83;;
4616;SDS011;2321;42.704;23.384;2023-04-24T10:14:10;1010.10;;;901.83;;
4616;SDS011;2321;42.704;23.384;2023-04-24T10:16:39;937.13;;;834.43;;
4616;SDS011;2321;42.704;23.384;2023-04-24T10:19:06;959.70;;;851.93;;
4616;SDS011;2321;42.704;23.384;2023-04-24T10:21:33;993.07;;;887.87;;
4616;SDS011;2321;42.704;23.384;2023-04-24T10:24:02;1050.47;;;942.90;;
4616;SDS011;2321;42.704;23.384;2023-04-24T10:26:32;934.53;;;835.37;;
4616;SDS011;2321;42.704;23.384;2023-04-24T10:29:00;1012.73;;;906.97;;
4616;SDS011;2321;42.704;23.384;2023-04-24T10:31:31;969.17;;;866.30;;
4616;SDS011;2321;42.704;23.384;2023-04-24T10:33:59;1063.00;;;903.53;;
4616;SDS011;2321;42.704;23.384;2023-04-24T10:36:27;1082.13;;;935.17;;
4616;SDS011;2321;42.704;23.384;2023-04-24T10:38:58;1100.63;;;902.73;;
4616;SDS011;2321;42.704;23.384;2023-04-24T10:41:26;1246.43;;;999.90;;
4616;SDS011;2321;42.704;23.384;2023-04-24T10:44:06;1135.73;;;871.13;;
4616;SDS011;2321;42.704;23.384;2023-04-24T10:46:35;1160.17;;;922.77;;
4616;SDS011;2321;42.704;23.384;2023-04-24T10:49:03;1137.20;;;974.37;;
4616;SDS011;2321;42.704;23.384;2023-04-24T10:51:44;1169.80;;;987.70;;
4616;SDS011;2321;42.704;23.384;2023-04-24T10:54:22;1187.33;;;989.40;;
4616;SDS011;2321;42.704;23.384;2023-04-24T10:56:50;1202.70;;;973.07;;
4616;SDS011;2321;42.704;23.384;2023-04-24T10:59:24;1106.70;;;911.40;;
4616;SDS011;2321;42.704;23.384;2023-04-24T11:01:55;1172.27;;;999.90;;
4616;SDS011;2321;42.704;23.384;2023-04-24T11:04:29;1063.27;;;943.17;;
4616;SDS011;2321;42.704;23.384;2023-04-24T11:06:57;1046.77;;;923.70;;
4616;SDS011;2321;42.704;23.384;2023-04-24T11:09:26;1041.67;;;903.93;;
4616;SDS011;2321;42.704;23.384;2023-04-24T11:12:02;1236.80;;;999.90;;
4616;SDS011;2321;42.704;23.384;2023-04-24T11:14:42;1236.57;;;998.17;;
4616;SDS011;2321;42.704;23.384;2023-04-24T11:17:31;1021.73;;;887.83;;
4616;SDS011;2321;42.704;23.384;2023-04-24T11:20:02;1104.13;;;883.37;;
4616;SDS011;2321;42.704;23.384;2023-04-24T11:22:32;1110.93;;;934.30;;
4616;SDS011;2321;42.704;23.384;2023-04-24T11:25:00;1034.27;;;924.47;;
4616;SDS011;2321;42.704;23.384;2023-04-24T11:27:29;1097.10;;;986.10;;
4616;SDS011;2321;42.704;23.384;2023-04-24T11:30:00;1059.37;;;951.60;;
4616;SDS011;2321;42.704;23.384;2023-04-24T11:32:31;946.17;;;829.70;;
4616;SDS011;2321;42.704;23.384;2023-04-24T11:35:02;980.07;;;879.67;;
4616;SDS011;2321;42.704;23.384;2023-04-24T11:37:33;949.47;;;847.20;;
4616;SDS011;2321;42.704;23.384;2023-04-24T11:40:01;977.13;;;881.50;;
4616;SDS011;2321;42.704;23.384;2023-04-24T11:42:33;954.03;;;858.13;;
4616;SDS011;2321;42.704;23.384;2023-04-24T11:45:00;858.80;;;768.70;;
4616;SDS011;2321;42.704;23.384;2023-04-24T11:47:29;857.80;;;768.90;;
4616;SDS011;2321;42.704;23.384;2023-04-24T11:49:59;898.23;;;813.13;;
4616;SDS011;2321;42.704;23.384;2023-04-24T11:52:26;918.37;;;832.37;;
4616;SDS011;2321;42.704;23.384;2023-04-24T11:54:53;898.47;;;814.27;;
4616;SDS011;2321;42.704;23.384;2023-04-24T11:57:20;857.83;;;775.27;;
4616;SDS011;2321;42.704;23.384;2023-04-24T11:59:48;800.50;;;719.90;;
4616;SDS011;2321;42.704;23.384;2023-04-24T12:02:21;912.67;;;826.70;;
4616;SDS011;2321;42.704;23.384;2023-04-24T12:04:50;877.30;;;790.73;;
4616;SDS011;2321;42.704;23.384;2023-04-24T12:07:17;919.57;;;832.00;;
4616;SDS011;2321;42.704;23.384;2023-04-24T12:09:45;828.93;;;745.43;;
4616;SDS011;2321;42.704;23.384;2023-04-24T12:12:13;867.43;;;787.37;;
4616;SDS011;2321;42.704;23.384;2023-04-24T12:14:42;947.27;;;867.37;;
4616;SDS011;2321;42.704;23.384;2023-04-24T12:17:14;872.67;;;792.27;;
4616;SDS011;2321;42.704;23.384;2023-04-24T12:19:45;930.60;;;848.93;;
4616;SDS011;2321;42.704;23.384;2023-04-24T12:22:14;904.50;;;824.67;;
4616;SDS011;2321;42.704;23.384;2023-04-24T12:27:24;831.93;;;752.37;;
4616;SDS011;2321;42.704;23.384;2023-04-24T12:29:51;915.60;;;836.30;;
4616;SDS011;2321;42.704;23.384;2023-04-24T12:32:19;830.93;;;755.17;;
4616;SDS011;2321;42.704;23.384;2023-04-24T12:34:46;820.20;;;746.50;;
4616;SDS011;2321;42.704;23.384;2023-04-24T12:37:14;862.90;;;791.20;;
4616;SDS011;2321;42.704;23.384;2023-04-24T12:39:44;853.63;;;781.33;;
4616;SDS011;2321;42.704;23.384;2023-04-24T12:42:25;873.87;;;799.77;;
4616;SDS011;2321;42.704;23.384;2023-04-24T12:44:55;874.00;;;798.77;;
4616;SDS011;2321;42.704;23.384;2023-04-24T12:47:25;784.57;;;715.57;;
4616;SDS011;2321;42.704;23.384;2023-04-24T12:49:52;839.07;;;767.47;;
4616;SDS011;2321;42.704;23.384;2023-04-24T12:52:21;873.20;;;796.40;;
4616;SDS011;2321;42.704;23.384;2023-04-24T12:54:49;868.23;;;791.83;;
4616;SDS011;2321;42.704;23.384;2023-04-24T12:57:16;856.20;;;780.50;;
4616;SDS011;2321;42.704;23.384;2023-04-24T12:59:44;769.37;;;699.90;;
4616;SDS011;2321;42.704;23.384;2023-04-24T13:02:11;860.17;;;788.03;;
4616;SDS011;2321;42.704;23.384;2023-04-24T13:04:38;864.80;;;794.30;;
4616;SDS011;2321;42.704;23.384;2023-04-24T13:07:05;861.67;;;790.70;;
4616;SDS011;2321;42.704;23.384;2023-04-24T13:09:34;842.53;;;772.43;;
4616;SDS011;2321;42.704;23.384;2023-04-24T13:12:01;806.90;;;737.67;;
4616;SDS011;2321;42.704;23.384;2023-04-24T13:14:28;802.83;;;732.93;;
4616;SDS011;2321;42.704;23.384;2023-04-24T13:16:55;834.33;;;762.27;;
4616;SDS011;2321;42.704;23.384;2023-04-24T13:19:23;900.23;;;827.03;;
4616;SDS011;2321;42.704;23.384;2023-04-24T13:21:50;824.33;;;752.87;;
4616;SDS011;2321;42.704;23.384;2023-04-24T13:24:17;834.40;;;763.80;;
4616;SDS011;2321;42.704;23.384;2023-04-24T13:26:46;875.43;;;803.63;;
4616;SDS011;2321;42.704;23.384;2023-04-24T13:29:13;875.67;;;803.00;;
4616;SDS011;2321;42.704;23.384;2023-04-24T13:31:40;921.37;;;847.23;;
4616;SDS011;2321;42.704;23.384;2023-04-24T13:34:07;831.07;;;760.70;;
4616;SDS011;2321;42.704;23.384;2023-04-24T13:36:34;883.97;;;811.47;;
4616;SDS011;2321;42.704;23.384;2023-04-24T13:39:01;871.83;;;798.87;;
4616;SDS011;2321;42.704;23.384;2023-04-24T13:41:29;1003.73;;;922.03;;
4616;SDS011;2321;42.704;23.384;2023-04-24T13:43:57;929.33;;;850.83;;
4616;SDS011;2321;42.704;23.384;2023-04-24T13:46:24;942.23;;;862.63;;
4616;SDS011;2321;42.704;23.384;2023-04-24T13:48:51;973.20;;;892.40;;
4616;SDS011;2321;42.704;23.384;2023-04-24T13:51:18;997.33;;;914.43;;
4616;SDS011;2321;42.704;23.384;2023-04-24T13:53:45;977.43;;;895.37;;
4616;SDS011;2321;42.704;23.384;2023-04-24T13:56:11;941.87;;;862.27;;
4616;SDS011;2321;42.704;23.384;2023-04-24T13:58:39;887.13;;;810.63;;
4616;SDS011;2321;42.704;23.384;2023-04-24T14:01:07;911.07;;;835.87;;
4616;SDS011;2321;42.704;23.384;2023-04-24T14:03:35;895.53;;;823.20;;
4616;SDS011;2321;42.704;23.384;2023-04-24T14:06:03;843.23;;;771.27;;
4616;SDS011;2321;42.704;23.384;2023-04-24T14:08:31;929.13;;;852.37;;
4616;SDS011;2321;42.704;23.384;2023-04-24T14:10:58;885.53;;;811.57;;
4616;SDS011;2321;42.704;23.384;2023-04-24T14:13:25;925.17;;;850.17;;
4616;SDS011;2321;42.704;23.384;2023-04-24T14:15:52;879.30;;;804.90;;